sensor_id;sensor_type;location;lat;lon;timestamp;temperature;humidity
5134;DHT22;2585;48.696;10.066;2022-12-29T00:02:00;3.70;78.90
5134;DHT22;2585;48.696;10.066;2022-12-29T00:04:26;3.70;81.70
5134;DHT22;2585;48.696;10.066;2022-12-29T00:06:53;3.60;84.80
5134;DHT22;2585;48.696;10.066;2022-12-29T00:09:20;3.60;86.50
5134;DHT22;2585;48.696;10.066;2022-12-29T00:11:47;3.60;87.70
5134;DHT22;2585;48.696;10.066;2022-12-29T00:14:16;3.50;89.60
5134;DHT22;2585;48.696;10.066;2022-12-29T00:17:02;3.50;90.20
5134;DHT22;2585;48.696;10.066;2022-12-29T00:19:30;3.50;90.60
5134;DHT22;2585;48.696;10.066;2022-12-29T00:22:15;3.40;91.40
5134;DHT22;2585;48.696;10.066;2022-12-29T00:25:01;3.40;91.70
5134;DHT22;2585;48.696;10.066;2022-12-29T00:27:47;3.40;92.20
5134;DHT22;2585;48.696;10.066;2022-12-29T00:30:33;3.40;92.50
5134;DHT22;2585;48.696;10.066;2022-12-29T00:33:21;3.40;92.70
5134;DHT22;2585;48.696;10.066;2022-12-29T00:36:20;3.40;93.00
5134;DHT22;2585;48.696;10.066;2022-12-29T00:38:53;3.40;93.00
5134;DHT22;2585;48.696;10.066;2022-12-29T00:41:40;3.50;93.10
5134;DHT22;2585;48.696;10.066;2022-12-29T00:44:26;3.60;92.80
5134;DHT22;2585;48.696;10.066;2022-12-29T00:46:52;3.60;92.50
5134;DHT22;2585;48.696;10.066;2022-12-29T00:49:19;3.60;92.60
5134;DHT22;2585;48.696;10.066;2022-12-29T00:52:05;3.60;92.80
5134;DHT22;2585;48.696;10.066;2022-12-29T00:54:35;3.60;92.90
5134;DHT22;2585;48.696;10.066;2022-12-29T00:57:04;3.60;93.00
5134;DHT22;2585;48.696;10.066;2022-12-29T00:59:31;3.60;93.10
5134;DHT22;2585;48.696;10.066;2022-12-29T01:01:59;3.60;93.20
5134;DHT22;2585;48.696;10.066;2022-12-29T01:04:26;3.60;93.20
5134;DHT22;2585;48.696;10.066;2022-12-29T01:06:53;3.70;93.30
5134;DHT22;2585;48.696;10.066;2022-12-29T01:09:20;3.70;93.10
5134;DHT22;2585;48.696;10.066;2022-12-29T01:12:07;3.80;93.00
5134;DHT22;2585;48.696;10.066;2022-12-29T01:14:34;3.80;92.50
5134;DHT22;2585;48.696;10.066;2022-12-29T01:17:02;3.90;92.10
5134;DHT22;2585;48.696;10.066;2022-12-29T01:19:29;4.00;91.10
5134;DHT22;2585;48.696;10.066;2022-12-29T01:21:56;4.10;90.10
5134;DHT22;2585;48.696;10.066;2022-12-29T01:24:22;4.20;88.00
5134;DHT22;2585;48.696;10.066;2022-12-29T01:26:50;4.20;84.30
5134;DHT22;2585;48.696;10.066;2022-12-29T01:29:17;4.30;80.50
5134;DHT22;2585;48.696;10.066;2022-12-29T01:31:44;4.40;76.20
5134;DHT22;2585;48.696;10.066;2022-12-29T01:34:11;4.60;69.50
5134;DHT22;2585;48.696;10.066;2022-12-29T01:36:38;4.80;64.30
5134;DHT22;2585;48.696;10.066;2022-12-29T01:39:05;4.80;61.30
5134;DHT22;2585;48.696;10.066;2022-12-29T01:41:32;5.00;55.80
5134;DHT22;2585;48.696;10.066;2022-12-29T01:44:00;5.00;49.70
5134;DHT22;2585;48.696;10.066;2022-12-29T01:46:40;5.00;49.00
5134;DHT22;2585;48.696;10.066;2022-12-29T01:51:47;5.40;33.60
5134;DHT22;2585;48.696;10.066;2022-12-29T01:54:26;5.40;29.90
5134;DHT22;2585;48.696;10.066;2022-12-29T01:56:56;5.50;27.50
5134;DHT22;2585;48.696;10.066;2022-12-29T01:59:27;5.80;22.80
5134;DHT22;2585;48.696;10.066;2022-12-29T02:01:55;5.80;20.80
5134;DHT22;2585;48.696;10.066;2022-12-29T02:04:25;5.90;19.60
5134;DHT22;2585;48.696;10.066;2022-12-29T02:07:02;5.70;19.80
5134;DHT22;2585;48.696;10.066;2022-12-29T02:09:29;5.90;17.80
5134;DHT22;2585;48.696;10.066;2022-12-29T02:11:57;5.90;17.10
5134;DHT22;2585;48.696;10.066;2022-12-29T02:14:24;5.90;16.40
5134;DHT22;2585;48.696;10.066;2022-12-29T02:34:07;5.90;13.00
5134;DHT22;2585;48.696;10.066;2022-12-29T02:47:23;5.80;12.10
5134;DHT22;2585;48.696;10.066;2022-12-29T02:53:00;5.60;12.90
5134;DHT22;2585;48.696;10.066;2022-12-29T02:55:27;5.70;12.50
5134;DHT22;2585;48.696;10.066;2022-12-29T02:58:24;5.70;12.40
5134;DHT22;2585;48.696;10.066;2022-12-29T03:11:33;6.10;9.60
5134;DHT22;2585;48.696;10.066;2022-12-29T03:14:29;5.90;9.70
5134;DHT22;2585;48.696;10.066;2022-12-29T03:20:08;6.00;8.60
5134;DHT22;2585;48.696;10.066;2022-12-29T03:22:39;6.10;8.10
5134;DHT22;2585;48.696;10.066;2022-12-29T03:27:54;6.00;7.90
5134;DHT22;2585;48.696;10.066;2022-12-29T03:30:22;5.90;8.40
5134;DHT22;2585;48.696;10.066;2022-12-29T03:32:53;5.80;8.70
5134;DHT22;2585;48.696;10.066;2022-12-29T03:35:23;5.80;8.30
5134;DHT22;2585;48.696;10.066;2022-12-29T03:38:05;5.70;8.60
5134;DHT22;2585;48.696;10.066;2022-12-29T03:40:33;5.70;8.80
5134;DHT22;2585;48.696;10.066;2022-12-29T03:43:02;5.50;9.10
5134;DHT22;2585;48.696;10.066;2022-12-29T03:45:29;5.50;10.00
5134;DHT22;2585;48.696;10.066;2022-12-29T03:47:56;5.40;10.80
5134;DHT22;2585;48.696;10.066;2022-12-29T03:50:23;5.30;11.60
5134;DHT22;2585;48.696;10.066;2022-12-29T03:52:50;5.20;12.30
5134;DHT22;2585;48.696;10.066;2022-12-29T03:55:16;5.10;14.00
5134;DHT22;2585;48.696;10.066;2022-12-29T03:57:44;5.10;15.30
5134;DHT22;2585;48.696;10.066;2022-12-29T04:00:11;5.10;14.70
5134;DHT22;2585;48.696;10.066;2022-12-29T04:02:38;5.10;15.90
5134;DHT22;2585;48.696;10.066;2022-12-29T04:05:06;5.30;13.40
5134;DHT22;2585;48.696;10.066;2022-12-29T04:07:33;5.40;11.60
5134;DHT22;2585;48.696;10.066;2022-12-29T04:10:00;5.40;10.90
5134;DHT22;2585;48.696;10.066;2022-12-29T04:12:26;5.30;11.90
5134;DHT22;2585;48.696;10.066;2022-12-29T04:14:53;5.20;12.60
5134;DHT22;2585;48.696;10.066;2022-12-29T04:17:20;5.30;12.30
5134;DHT22;2585;48.696;10.066;2022-12-29T04:19:47;5.20;12.70
5134;DHT22;2585;48.696;10.066;2022-12-29T04:22:14;5.10;13.80
5134;DHT22;2585;48.696;10.066;2022-12-29T04:24:40;5.00;14.40
5134;DHT22;2585;48.696;10.066;2022-12-29T04:27:07;4.90;15.70
5134;DHT22;2585;48.696;10.066;2022-12-29T04:29:34;4.80;17.50
5134;DHT22;2585;48.696;10.066;2022-12-29T04:32:01;4.60;19.40
5134;DHT22;2585;48.696;10.066;2022-12-29T04:34:27;4.60;20.70
5134;DHT22;2585;48.696;10.066;2022-12-29T04:36:54;4.50;22.50
5134;DHT22;2585;48.696;10.066;2022-12-29T04:39:21;4.40;24.60
5134;DHT22;2585;48.696;10.066;2022-12-29T04:41:48;4.30;25.60
5134;DHT22;2585;48.696;10.066;2022-12-29T04:44:15;4.30;25.60
5134;DHT22;2585;48.696;10.066;2022-12-29T04:46:43;4.20;25.60
5134;DHT22;2585;48.696;10.066;2022-12-29T04:49:10;4.10;29.70
5134;DHT22;2585;48.696;10.066;2022-12-29T04:51:37;4.10;31.70
5134;DHT22;2585;48.696;10.066;2022-12-29T04:54:04;4.00;35.50
5134;DHT22;2585;48.696;10.066;2022-12-29T04:56:31;4.00;39.00
5134;DHT22;2585;48.696;10.066;2022-12-29T04:58:58;3.80;41.10
5134;DHT22;2585;48.696;10.066;2022-12-29T05:01:24;3.70;44.10
5134;DHT22;2585;48.696;10.066;2022-12-29T05:03:51;3.60;47.40
5134;DHT22;2585;48.696;10.066;2022-12-29T05:06:19;3.50;52.40
5134;DHT22;2585;48.696;10.066;2022-12-29T05:08:45;3.50;58.50
5134;DHT22;2585;48.696;10.066;2022-12-29T05:11:12;3.50;60.50
5134;DHT22;2585;48.696;10.066;2022-12-29T05:13:39;3.40;60.90
5134;DHT22;2585;48.696;10.066;2022-12-29T05:16:06;3.40;62.10
5134;DHT22;2585;48.696;10.066;2022-12-29T05:18:33;3.40;61.60
5134;DHT22;2585;48.696;10.066;2022-12-29T05:21:00;3.30;61.40
5134;DHT22;2585;48.696;10.066;2022-12-29T05:23:26;3.30;61.80
5134;DHT22;2585;48.696;10.066;2022-12-29T05:25:53;3.20;62.90
5134;DHT22;2585;48.696;10.066;2022-12-29T05:28:20;3.20;63.80
5134;DHT22;2585;48.696;10.066;2022-12-29T05:30:50;3.10;65.00
5134;DHT22;2585;48.696;10.066;2022-12-29T05:33:18;3.20;66.20
5134;DHT22;2585;48.696;10.066;2022-12-29T05:35:45;3.10;66.40
5134;DHT22;2585;48.696;10.066;2022-12-29T05:38:12;3.10;67.40
5134;DHT22;2585;48.696;10.066;2022-12-29T05:40:39;3.10;69.20
5134;DHT22;2585;48.696;10.066;2022-12-29T05:43:05;3.30;68.60
5134;DHT22;2585;48.696;10.066;2022-12-29T05:45:33;3.20;66.10
5134;DHT22;2585;48.696;10.066;2022-12-29T05:48:00;3.20;66.30
5134;DHT22;2585;48.696;10.066;2022-12-29T05:50:26;3.30;65.40
5134;DHT22;2585;48.696;10.066;2022-12-29T05:52:53;3.40;63.70
5134;DHT22;2585;48.696;10.066;2022-12-29T05:55:20;3.30;63.30
5134;DHT22;2585;48.696;10.066;2022-12-29T05:57:47;3.30;62.80
5134;DHT22;2585;48.696;10.066;2022-12-29T06:00:14;3.40;62.30
5134;DHT22;2585;48.696;10.066;2022-12-29T06:02:42;3.60;61.60
5134;DHT22;2585;48.696;10.066;2022-12-29T06:05:09;3.70;52.90
5134;DHT22;2585;48.696;10.066;2022-12-29T06:07:36;3.70;48.50
5134;DHT22;2585;48.696;10.066;2022-12-29T06:10:04;3.60;50.70
5134;DHT22;2585;48.696;10.066;2022-12-29T06:12:31;3.60;54.20
5134;DHT22;2585;48.696;10.066;2022-12-29T06:14:58;3.90;47.50
5134;DHT22;2585;48.696;10.066;2022-12-29T06:17:25;4.10;37.20
5134;DHT22;2585;48.696;10.066;2022-12-29T06:19:51;4.40;27.40
5134;DHT22;2585;48.696;10.066;2022-12-29T06:22:18;4.20;24.10
5134;DHT22;2585;48.696;10.066;2022-12-29T06:24:45;4.20;24.50
5134;DHT22;2585;48.696;10.066;2022-12-29T06:27:12;4.10;24.20
5134;DHT22;2585;48.696;10.066;2022-12-29T06:29:42;4.20;24.70
5134;DHT22;2585;48.696;10.066;2022-12-29T06:32:09;4.20;23.40
5134;DHT22;2585;48.696;10.066;2022-12-29T06:34:36;4.00;24.40
5134;DHT22;2585;48.696;10.066;2022-12-29T06:37:03;4.20;26.40
5134;DHT22;2585;48.696;10.066;2022-12-29T06:39:30;4.50;22.50
5134;DHT22;2585;48.696;10.066;2022-12-29T06:41:57;4.70;18.60
5134;DHT22;2585;48.696;10.066;2022-12-29T06:44:24;4.70;16.60
5134;DHT22;2585;48.696;10.066;2022-12-29T06:46:50;4.80;15.30
5134;DHT22;2585;48.696;10.066;2022-12-29T06:49:17;4.70;15.20
5134;DHT22;2585;48.696;10.066;2022-12-29T06:51:44;4.60;15.20
5134;DHT22;2585;48.696;10.066;2022-12-29T06:54:11;4.30;16.20
5134;DHT22;2585;48.696;10.066;2022-12-29T06:56:38;4.00;18.40
5134;DHT22;2585;48.696;10.066;2022-12-29T06:59:04;3.80;21.50
5134;DHT22;2585;48.696;10.066;2022-12-29T07:01:31;3.60;25.50
5134;DHT22;2585;48.696;10.066;2022-12-29T07:03:58;3.40;31.10
5134;DHT22;2585;48.696;10.066;2022-12-29T07:06:25;3.30;38.90
5134;DHT22;2585;48.696;10.066;2022-12-29T07:08:52;3.20;47.50
5134;DHT22;2585;48.696;10.066;2022-12-29T07:11:21;3.10;56.90
5134;DHT22;2585;48.696;10.066;2022-12-29T07:13:49;3.10;61.90
5134;DHT22;2585;48.696;10.066;2022-12-29T07:16:16;3.10;63.60
5134;DHT22;2585;48.696;10.066;2022-12-29T07:18:43;3.00;64.80
5134;DHT22;2585;48.696;10.066;2022-12-29T07:21:10;3.00;65.50
5134;DHT22;2585;48.696;10.066;2022-12-29T07:23:38;3.00;65.90
5134;DHT22;2585;48.696;10.066;2022-12-29T07:26:06;3.00;66.80
5134;DHT22;2585;48.696;10.066;2022-12-29T07:28:34;2.90;68.30
5134;DHT22;2585;48.696;10.066;2022-12-29T07:31:02;2.90;70.10
5134;DHT22;2585;48.696;10.066;2022-12-29T07:33:29;2.80;71.80
5134;DHT22;2585;48.696;10.066;2022-12-29T07:35:56;2.80;74.20
5134;DHT22;2585;48.696;10.066;2022-12-29T07:38:23;2.80;76.60
5134;DHT22;2585;48.696;10.066;2022-12-29T07:40:50;2.70;78.70
5134;DHT22;2585;48.696;10.066;2022-12-29T07:43:17;2.70;80.70
5134;DHT22;2585;48.696;10.066;2022-12-29T07:45:45;2.60;82.30
5134;DHT22;2585;48.696;10.066;2022-12-29T07:48:12;2.60;84.80
5134;DHT22;2585;48.696;10.066;2022-12-29T07:50:39;2.60;87.20
5134;DHT22;2585;48.696;10.066;2022-12-29T07:53:06;2.60;88.20
5134;DHT22;2585;48.696;10.066;2022-12-29T07:55:33;2.60;89.40
5134;DHT22;2585;48.696;10.066;2022-12-29T07:57:59;2.50;90.40
5134;DHT22;2585;48.696;10.066;2022-12-29T08:00:26;2.60;91.40
5134;DHT22;2585;48.696;10.066;2022-12-29T08:02:53;2.90;92.40
5134;DHT22;2585;48.696;10.066;2022-12-29T08:05:20;3.00;92.00
5134;DHT22;2585;48.696;10.066;2022-12-29T08:07:47;3.30;92.00
5134;DHT22;2585;48.696;10.066;2022-12-29T08:10:15;4.10;89.40
5134;DHT22;2585;48.696;10.066;2022-12-29T08:12:43;4.30;76.60
5134;DHT22;2585;48.696;10.066;2022-12-29T08:15:11;4.30;68.40
5134;DHT22;2585;48.696;10.066;2022-12-29T08:17:38;4.70;63.90
5134;DHT22;2585;48.696;10.066;2022-12-29T08:20:05;4.80;58.10
5134;DHT22;2585;48.696;10.066;2022-12-29T08:22:32;4.80;52.30
5134;DHT22;2585;48.696;10.066;2022-12-29T08:24:59;4.80;54.70
5134;DHT22;2585;48.696;10.066;2022-12-29T08:27:26;4.90;50.60
5134;DHT22;2585;48.696;10.066;2022-12-29T08:29:53;5.10;45.10
5134;DHT22;2585;48.696;10.066;2022-12-29T08:32:20;5.30;42.70
5134;DHT22;2585;48.696;10.066;2022-12-29T08:34:46;5.30;40.00
5134;DHT22;2585;48.696;10.066;2022-12-29T08:37:13;5.40;39.00
5134;DHT22;2585;48.696;10.066;2022-12-29T08:39:40;5.60;36.70
5134;DHT22;2585;48.696;10.066;2022-12-29T08:42:07;5.60;35.40
5134;DHT22;2585;48.696;10.066;2022-12-29T08:44:34;5.70;34.60
5134;DHT22;2585;48.696;10.066;2022-12-29T08:47:00;5.80;32.50
5134;DHT22;2585;48.696;10.066;2022-12-29T08:49:27;5.90;31.50
5134;DHT22;2585;48.696;10.066;2022-12-29T08:51:54;5.90;31.40
5134;DHT22;2585;48.696;10.066;2022-12-29T08:54:23;6.00;31.70
5134;DHT22;2585;48.696;10.066;2022-12-29T08:56:50;6.20;1.00
5134;DHT22;2585;48.696;10.066;2022-12-29T08:59:17;6.20;1.00
5134;DHT22;2585;48.696;10.066;2022-12-29T09:01:44;6.20;1.00
5134;DHT22;2585;48.696;10.066;2022-12-29T09:04:10;6.20;2.30
5134;DHT22;2585;48.696;10.066;2022-12-29T09:06:42;6.40;2.10
5134;DHT22;2585;48.696;10.066;2022-12-29T09:09:09;6.40;3.00
5134;DHT22;2585;48.696;10.066;2022-12-29T09:11:35;6.60;1.40
5134;DHT22;2585;48.696;10.066;2022-12-29T09:14:03;6.80;1.00
5134;DHT22;2585;48.696;10.066;2022-12-29T09:16:30;6.90;1.00
5134;DHT22;2585;48.696;10.066;2022-12-29T09:18:57;7.10;1.00
5134;DHT22;2585;48.696;10.066;2022-12-29T09:21:24;7.30;1.00
5134;DHT22;2585;48.696;10.066;2022-12-29T09:23:50;7.40;1.00
5134;DHT22;2585;48.696;10.066;2022-12-29T09:26:17;7.50;1.00
5134;DHT22;2585;48.696;10.066;2022-12-29T09:28:44;7.60;1.00
5134;DHT22;2585;48.696;10.066;2022-12-29T09:31:12;7.70;1.00
5134;DHT22;2585;48.696;10.066;2022-12-29T09:33:39;8.00;1.00
5134;DHT22;2585;48.696;10.066;2022-12-29T09:36:06;8.00;1.00
5134;DHT22;2585;48.696;10.066;2022-12-29T09:38:33;8.10;1.00
5134;DHT22;2585;48.696;10.066;2022-12-29T09:47:05;8.30;1.00
5134;DHT22;2585;48.696;10.066;2022-12-29T09:49:48;8.40;1.00
5134;DHT22;2585;48.696;10.066;2022-12-29T09:57:42;8.70;1.00
5134;DHT22;2585;48.696;10.066;2022-12-29T10:00:20;8.80;1.00
5134;DHT22;2585;48.696;10.066;2022-12-29T10:02:56;8.80;1.00
5134;DHT22;2585;48.696;10.066;2022-12-29T10:08:26;9.00;1.00
5134;DHT22;2585;48.696;10.066;2022-12-29T10:11:40;9.10;1.00
5134;DHT22;2585;48.696;10.066;2022-12-29T10:25:25;8.90;1.00
5134;DHT22;2585;48.696;10.066;2022-12-29T10:28:00;9.00;1.00
5134;DHT22;2585;48.696;10.066;2022-12-29T10:30:30;8.90;1.00
5134;DHT22;2585;48.696;10.066;2022-12-29T10:33:04;9.00;1.00
5134;DHT22;2585;48.696;10.066;2022-12-29T10:35:36;9.00;1.00
5134;DHT22;2585;48.696;10.066;2022-12-29T10:38:25;9.10;1.00
5134;DHT22;2585;48.696;10.066;2022-12-29T10:41:08;9.10;1.00
5134;DHT22;2585;48.696;10.066;2022-12-29T10:43:45;9.10;1.00
5134;DHT22;2585;48.696;10.066;2022-12-29T10:46:33;9.10;1.00
5134;DHT22;2585;48.696;10.066;2022-12-29T10:49:01;9.10;1.00
5134;DHT22;2585;48.696;10.066;2022-12-29T10:51:36;9.20;1.00
5134;DHT22;2585;48.696;10.066;2022-12-29T10:57:08;9.20;1.00
5134;DHT22;2585;48.696;10.066;2022-12-29T10:59:37;9.10;1.00
5134;DHT22;2585;48.696;10.066;2022-12-29T11:04:57;9.00;1.00
5134;DHT22;2585;48.696;10.066;2022-12-29T11:07:28;9.00;1.00
5134;DHT22;2585;48.696;10.066;2022-12-29T11:13:02;8.90;1.00
5134;DHT22;2585;48.696;10.066;2022-12-29T11:15:40;9.00;1.00
5134;DHT22;2585;48.696;10.066;2022-12-29T11:18:35;9.00;1.00
5134;DHT22;2585;48.696;10.066;2022-12-29T11:24:04;8.80;1.00
5134;DHT22;2585;48.696;10.066;2022-12-29T11:26:32;8.80;1.00
5134;DHT22;2585;48.696;10.066;2022-12-29T11:29:25;8.80;1.00
5134;DHT22;2585;48.696;10.066;2022-12-29T11:31:57;8.80;1.00
5134;DHT22;2585;48.696;10.066;2022-12-29T11:34:34;8.70;1.00
5134;DHT22;2585;48.696;10.066;2022-12-29T11:37:20;8.80;1.00
5134;DHT22;2585;48.696;10.066;2022-12-29T11:39:58;8.80;1.00
5134;DHT22;2585;48.696;10.066;2022-12-29T11:45:06;8.70;1.00
5134;DHT22;2585;48.696;10.066;2022-12-29T11:47:36;8.80;1.00
5134;DHT22;2585;48.696;10.066;2022-12-29T11:50:06;8.90;1.00
5134;DHT22;2585;48.696;10.066;2022-12-29T11:52:35;8.90;1.00
5134;DHT22;2585;48.696;10.066;2022-12-29T11:55:06;9.00;1.00
5134;DHT22;2585;48.696;10.066;2022-12-29T11:57:34;9.00;1.00
5134;DHT22;2585;48.696;10.066;2022-12-29T12:00:15;9.10;1.00
5134;DHT22;2585;48.696;10.066;2022-12-29T12:02:53;9.00;1.00
5134;DHT22;2585;48.696;10.066;2022-12-29T12:05:47;8.90;1.00
5134;DHT22;2585;48.696;10.066;2022-12-29T12:08:41;8.90;1.00
5134;DHT22;2585;48.696;10.066;2022-12-29T12:11:27;8.90;1.00
5134;DHT22;2585;48.696;10.066;2022-12-29T12:16:52;8.90;1.00
5134;DHT22;2585;48.696;10.066;2022-12-29T12:19:47;8.90;1.00
5134;DHT22;2585;48.696;10.066;2022-12-29T12:25:12;8.90;1.00
5134;DHT22;2585;48.696;10.066;2022-12-29T12:27:51;8.70;2.60
5134;DHT22;2585;48.696;10.066;2022-12-29T12:30:21;8.60;8.10
5134;DHT22;2585;48.696;10.066;2022-12-29T12:38:42;8.70;4.10
5134;DHT22;2585;48.696;10.066;2022-12-29T12:44:28;8.80;1.90
5134;DHT22;2585;48.696;10.066;2022-12-29T13:06:36;9.00;1.00
5134;DHT22;2585;48.696;10.066;2022-12-29T13:12:10;9.10;3.70
5134;DHT22;2585;48.696;10.066;2022-12-29T13:14:44;9.00;11.10
5134;DHT22;2585;48.696;10.066;2022-12-29T13:17:51;8.90;28.90
5134;DHT22;2585;48.696;10.066;2022-12-29T13:20:37;8.80;50.60
5134;DHT22;2585;48.696;10.066;2022-12-29T13:23:30;8.80;56.60
5134;DHT22;2585;48.696;10.066;2022-12-29T13:26:15;8.70;64.10
5134;DHT22;2585;48.696;10.066;2022-12-29T13:29:16;8.60;75.10
5134;DHT22;2585;48.696;10.066;2022-12-29T13:32:09;8.60;79.70
5134;DHT22;2585;48.696;10.066;2022-12-29T13:37:27;8.60;79.10
5134;DHT22;2585;48.696;10.066;2022-12-29T13:39:59;8.50;85.00
5134;DHT22;2585;48.696;10.066;2022-12-29T13:42:28;8.50;87.20
5134;DHT22;2585;48.696;10.066;2022-12-29T13:45:06;8.50;89.50
5134;DHT22;2585;48.696;10.066;2022-12-29T13:47:39;8.40;90.10
5134;DHT22;2585;48.696;10.066;2022-12-29T13:50:19;8.50;90.00
5134;DHT22;2585;48.696;10.066;2022-12-29T13:58:27;8.40;90.50
5134;DHT22;2585;48.696;10.066;2022-12-29T14:01:37;8.40;90.80
5134;DHT22;2585;48.696;10.066;2022-12-29T14:04:12;8.40;90.90
5134;DHT22;2585;48.696;10.066;2022-12-29T14:06:40;8.30;91.10
5134;DHT22;2585;48.696;10.066;2022-12-29T14:12:01;8.30;91.20
5134;DHT22;2585;48.696;10.066;2022-12-29T14:14:41;8.20;91.30
5134;DHT22;2585;48.696;10.066;2022-12-29T14:17:10;8.30;91.30
5134;DHT22;2585;48.696;10.066;2022-12-29T14:19:42;8.40;91.30
5134;DHT22;2585;48.696;10.066;2022-12-29T14:22:11;8.40;91.30
5134;DHT22;2585;48.696;10.066;2022-12-29T14:24:43;8.40;91.30
5134;DHT22;2585;48.696;10.066;2022-12-29T14:34:58;8.40;91.20
5134;DHT22;2585;48.696;10.066;2022-12-29T14:37:31;8.30;91.20
5134;DHT22;2585;48.696;10.066;2022-12-29T14:40:17;8.30;91.20
5134;DHT22;2585;48.696;10.066;2022-12-29T14:42:48;8.20;91.20
5134;DHT22;2585;48.696;10.066;2022-12-29T14:47:46;8.20;91.20
5134;DHT22;2585;48.696;10.066;2022-12-29T14:52:55;8.10;91.20
5134;DHT22;2585;48.696;10.066;2022-12-29T14:55:41;8.10;91.10
5134;DHT22;2585;48.696;10.066;2022-12-29T15:00:48;8.00;91.20
5134;DHT22;2585;48.696;10.066;2022-12-29T15:08:32;7.90;91.20
5134;DHT22;2585;48.696;10.066;2022-12-29T15:11:06;7.70;91.20
5134;DHT22;2585;48.696;10.066;2022-12-29T15:13:40;7.70;91.20
5134;DHT22;2585;48.696;10.066;2022-12-29T15:18:57;7.50;91.20
5134;DHT22;2585;48.696;10.066;2022-12-29T15:21:43;7.50;91.20
5134;DHT22;2585;48.696;10.066;2022-12-29T15:24:11;7.40;91.20
5134;DHT22;2585;48.696;10.066;2022-12-29T15:26:41;7.20;91.10
5134;DHT22;2585;48.696;10.066;2022-12-29T15:29:37;7.20;91.20
5134;DHT22;2585;48.696;10.066;2022-12-29T15:32:23;7.10;91.10
5134;DHT22;2585;48.696;10.066;2022-12-29T15:34:53;7.00;91.10
5134;DHT22;2585;48.696;10.066;2022-12-29T15:37:34;6.90;91.10
5134;DHT22;2585;48.696;10.066;2022-12-29T15:40:02;6.90;91.10
5134;DHT22;2585;48.696;10.066;2022-12-29T15:45:12;6.70;91.10
5134;DHT22;2585;48.696;10.066;2022-12-29T15:47:41;6.70;91.10
5134;DHT22;2585;48.696;10.066;2022-12-29T15:50:21;6.60;91.00
5134;DHT22;2585;48.696;10.066;2022-12-29T15:52:48;6.50;91.00
5134;DHT22;2585;48.696;10.066;2022-12-29T15:55:35;6.40;91.00
5134;DHT22;2585;48.696;10.066;2022-12-29T15:58:05;6.30;91.00
5134;DHT22;2585;48.696;10.066;2022-12-29T16:00:34;6.30;91.00
5134;DHT22;2585;48.696;10.066;2022-12-29T16:03:04;6.20;91.00
5134;DHT22;2585;48.696;10.066;2022-12-29T16:05:39;6.20;91.00
5134;DHT22;2585;48.696;10.066;2022-12-29T16:10:54;6.00;95.60
5134;DHT22;2585;48.696;10.066;2022-12-29T16:16:00;5.90;95.60
5134;DHT22;2585;48.696;10.066;2022-12-29T16:18:33;5.80;95.60
5134;DHT22;2585;48.696;10.066;2022-12-29T16:21:03;5.80;95.60
5134;DHT22;2585;48.696;10.066;2022-12-29T16:23:31;5.70;95.60
5134;DHT22;2585;48.696;10.066;2022-12-29T16:25:59;5.70;95.60
5134;DHT22;2585;48.696;10.066;2022-12-29T16:28:42;5.60;95.60
5134;DHT22;2585;48.696;10.066;2022-12-29T16:31:51;5.60;95.60
5134;DHT22;2585;48.696;10.066;2022-12-29T16:41:54;5.40;95.60
5134;DHT22;2585;48.696;10.066;2022-12-29T16:44:29;5.30;95.60
5134;DHT22;2585;48.696;10.066;2022-12-29T16:49:40;5.20;95.60
5134;DHT22;2585;48.696;10.066;2022-12-29T16:52:21;5.10;95.50
5134;DHT22;2585;48.696;10.066;2022-12-29T16:54:52;5.00;95.50
5134;DHT22;2585;48.696;10.066;2022-12-29T16:57:35;4.90;95.50
5134;DHT22;2585;48.696;10.066;2022-12-29T17:00:07;4.90;95.50
5134;DHT22;2585;48.696;10.066;2022-12-29T17:02:44;4.80;95.50
5134;DHT22;2585;48.696;10.066;2022-12-29T17:05:13;4.80;95.50
5134;DHT22;2585;48.696;10.066;2022-12-29T17:07:41;4.80;95.50
5134;DHT22;2585;48.696;10.066;2022-12-29T17:10:10;4.80;95.50
5134;DHT22;2585;48.696;10.066;2022-12-29T17:12:38;4.80;95.50
5134;DHT22;2585;48.696;10.066;2022-12-29T17:15:27;4.70;95.50
5134;DHT22;2585;48.696;10.066;2022-12-29T17:18:01;4.70;95.50
5134;DHT22;2585;48.696;10.066;2022-12-29T17:20:29;4.60;95.40
5134;DHT22;2585;48.696;10.066;2022-12-29T17:22:57;4.60;95.50
5134;DHT22;2585;48.696;10.066;2022-12-29T17:25:26;4.60;95.50
5134;DHT22;2585;48.696;10.066;2022-12-29T17:28:35;4.60;95.50
5134;DHT22;2585;48.696;10.066;2022-12-29T17:30:58;4.60;95.50
5134;DHT22;2585;48.696;10.066;2022-12-29T17:33:26;4.60;95.50
5134;DHT22;2585;48.696;10.066;2022-12-29T17:35:54;4.60;95.50
5134;DHT22;2585;48.696;10.066;2022-12-29T17:38:29;4.50;95.50
5134;DHT22;2585;48.696;10.066;2022-12-29T17:40:57;4.50;95.50
5134;DHT22;2585;48.696;10.066;2022-12-29T17:43:24;4.40;95.50
5134;DHT22;2585;48.696;10.066;2022-12-29T17:46:00;4.40;95.50
5134;DHT22;2585;48.696;10.066;2022-12-29T17:48:27;4.40;95.50
5134;DHT22;2585;48.696;10.066;2022-12-29T17:50:56;4.40;95.50
5134;DHT22;2585;48.696;10.066;2022-12-29T17:53:27;4.50;95.50
5134;DHT22;2585;48.696;10.066;2022-12-29T17:55:54;4.50;95.50
5134;DHT22;2585;48.696;10.066;2022-12-29T17:58:23;4.50;95.50
5134;DHT22;2585;48.696;10.066;2022-12-29T18:00:53;4.50;95.50
5134;DHT22;2585;48.696;10.066;2022-12-29T18:03:38;4.40;95.50
5134;DHT22;2585;48.696;10.066;2022-12-29T18:06:08;4.30;95.50
5134;DHT22;2585;48.696;10.066;2022-12-29T18:08:37;4.30;95.50
5134;DHT22;2585;48.696;10.066;2022-12-29T18:11:19;4.30;95.50
5134;DHT22;2585;48.696;10.066;2022-12-29T18:13:47;4.40;95.50
5134;DHT22;2585;48.696;10.066;2022-12-29T18:16:14;4.40;95.50
5134;DHT22;2585;48.696;10.066;2022-12-29T18:18:42;4.40;95.50
5134;DHT22;2585;48.696;10.066;2022-12-29T18:21:17;4.50;95.50
5134;DHT22;2585;48.696;10.066;2022-12-29T18:23:46;4.50;95.50
5134;DHT22;2585;48.696;10.066;2022-12-29T18:26:21;4.50;95.50
5134;DHT22;2585;48.696;10.066;2022-12-29T18:28:55;4.50;95.60
5134;DHT22;2585;48.696;10.066;2022-12-29T18:31:24;4.50;95.60
5134;DHT22;2585;48.696;10.066;2022-12-29T18:33:53;4.50;95.60
5134;DHT22;2585;48.696;10.066;2022-12-29T18:36:20;4.60;95.60
5134;DHT22;2585;48.696;10.066;2022-12-29T18:38:48;4.60;95.60
5134;DHT22;2585;48.696;10.066;2022-12-29T18:41:25;4.60;95.60
5134;DHT22;2585;48.696;10.066;2022-12-29T18:43:52;4.50;95.60
5134;DHT22;2585;48.696;10.066;2022-12-29T18:46:19;4.50;95.60
5134;DHT22;2585;48.696;10.066;2022-12-29T18:48:49;4.50;95.60
5134;DHT22;2585;48.696;10.066;2022-12-29T18:51:20;4.50;95.60
5134;DHT22;2585;48.696;10.066;2022-12-29T18:53:48;4.50;95.60
5134;DHT22;2585;48.696;10.066;2022-12-29T18:56:14;4.50;95.60
5134;DHT22;2585;48.696;10.066;2022-12-29T18:58:41;4.60;95.60
5134;DHT22;2585;48.696;10.066;2022-12-29T19:01:22;4.60;95.60
5134;DHT22;2585;48.696;10.066;2022-12-29T19:03:50;4.60;95.60
5134;DHT22;2585;48.696;10.066;2022-12-29T19:06:18;4.60;95.60
5134;DHT22;2585;48.696;10.066;2022-12-29T19:08:45;4.60;95.60
5134;DHT22;2585;48.696;10.066;2022-12-29T19:11:12;4.60;95.60
5134;DHT22;2585;48.696;10.066;2022-12-29T19:13:39;4.50;95.60
5134;DHT22;2585;48.696;10.066;2022-12-29T19:16:07;4.50;95.60
5134;DHT22;2585;48.696;10.066;2022-12-29T19:18:37;4.50;95.60
5134;DHT22;2585;48.696;10.066;2022-12-29T19:21:10;4.50;95.60
5134;DHT22;2585;48.696;10.066;2022-12-29T19:23:37;4.40;95.60
5134;DHT22;2585;48.696;10.066;2022-12-29T19:26:05;4.40;95.60
5134;DHT22;2585;48.696;10.066;2022-12-29T19:28:31;4.40;95.60
5134;DHT22;2585;48.696;10.066;2022-12-29T19:31:01;4.40;95.60
5134;DHT22;2585;48.696;10.066;2022-12-29T19:33:28;4.50;95.60